Othello, Washington
Current Conditions -  °F | °C
As of 1:52 PM on Monday 20 Oct 2014 (Local Time) from KMWH Reporting Station
Broken Clouds Broken Clouds  
Wind Chill: 64°   Ceiling: 9000
Heat Index: 64°   Visibility: 10mi
Dew Point: 50°   Wind: 3mph
Humidity: 60%   Direction: NA
Pressure: 29.73"   Gusts: NA
Location:  46.83°N, 119.18°W
Report Text: KMWH 202052Z VRB03KT 10SM SCT055 BKN090 BKN200 18/10 A2973 RMK AO2 SLP068 T01780100 58009
Loading
Personal Weather Stations






























Interactive Weather Map
Tropical Storm Tracking
New forecast layout! Learn more

10-Day Weather Forecast

Advertisements
Track Severe Weather on mobile